createdAt,value
2023-04-14T00:02:06.722Z,85.60
2023-04-14T00:04:34.052Z,85.40
2023-04-14T00:07:01.296Z,85.40
2023-04-14T00:09:28.278Z,85.30
2023-04-14T00:11:55.141Z,85.40
2023-04-14T00:14:22.008Z,85.40
2023-04-14T00:16:49.043Z,85.40
2023-04-14T00:19:16.038Z,85.30
2023-04-14T00:21:42.890Z,85.40
2023-04-14T00:24:09.726Z,85.40
2023-04-14T00:26:36.770Z,85.30
2023-04-14T00:29:03.707Z,85.50
2023-04-14T00:31:30.811Z,85.20
2023-04-14T00:34:00.776Z,85.20
2023-04-14T00:36:27.925Z,85.20
2023-04-14T00:38:54.769Z,84.40
2023-04-14T00:41:21.796Z,84.50
2023-04-14T00:43:48.743Z,84.60
2023-04-14T00:46:17.260Z,84.80
2023-04-14T00:48:44.558Z,84.40
2023-04-14T00:51:12.039Z,84.40
2023-04-14T00:53:41.029Z,84.60
2023-04-14T00:56:08.243Z,85.00
2023-04-14T00:58:36.356Z,85.20
2023-04-14T01:01:03.342Z,84.60
2023-04-14T01:03:30.436Z,84.50
2023-04-14T01:05:58.197Z,84.70
2023-04-14T01:08:25.767Z,84.40
2023-04-14T01:11:19.038Z,84.20
2023-04-14T01:14:12.658Z,84.30
2023-04-14T01:16:42.194Z,84.30
2023-04-14T01:19:31.934Z,84.20
2023-04-14T01:22:09.277Z,84.70
2023-04-14T01:24:54.838Z,85.00
2023-04-14T01:27:43.304Z,84.80
2023-04-14T01:30:21.633Z,85.00
2023-04-14T01:32:51.827Z,85.10
2023-04-14T01:35:47.133Z,85.30
2023-04-14T01:38:28.662Z,85.00
2023-04-14T01:41:11.920Z,85.00
2023-04-14T01:43:42.302Z,84.80
2023-04-14T01:46:14.129Z,84.80
2023-04-14T01:48:41.934Z,85.00
2023-04-14T01:51:10.081Z,84.60
2023-04-14T01:53:42.838Z,84.50
2023-04-14T01:56:12.771Z,84.30
2023-04-14T01:58:41.465Z,84.00
2023-04-14T02:01:08.647Z,83.70
2023-04-14T02:03:36.949Z,83.90
2023-04-14T02:06:06.382Z,83.70
2023-04-14T02:08:34.565Z,83.80
2023-04-14T02:11:03.483Z,84.40
2023-04-14T02:13:32.281Z,84.80
2023-04-14T02:16:01.744Z,84.80
2023-04-14T02:21:20.598Z,85.20
2023-04-14T02:23:47.468Z,85.20
2023-04-14T02:26:17.102Z,84.60
2023-04-14T02:28:58.504Z,84.70
2023-04-14T02:31:30.164Z,84.60
2023-04-14T02:34:00.653Z,84.80
2023-04-14T02:36:37.935Z,85.30
2023-04-14T02:39:19.425Z,85.50
2023-04-14T02:41:48.604Z,85.90
2023-04-14T02:44:29.848Z,85.70
2023-04-14T02:47:10.512Z,85.80
2023-04-14T02:49:50.545Z,85.90
2023-04-14T02:52:24.744Z,85.90
2023-04-14T02:54:55.485Z,85.60
2023-04-14T02:57:24.573Z,85.70
2023-04-14T02:59:52.955Z,86.00
2023-04-14T03:02:21.399Z,86.10
2023-04-14T03:04:58.994Z,86.10
2023-04-14T03:07:46.714Z,86.10
2023-04-14T03:10:16.150Z,86.70
2023-04-14T03:12:45.856Z,86.40
2023-04-14T03:15:12.877Z,86.50
2023-04-14T03:17:40.471Z,86.40
2023-04-14T03:20:09.270Z,86.40
2023-04-14T03:22:41.086Z,86.20
2023-04-14T03:25:12.426Z,86.10
2023-04-14T03:27:43.652Z,86.30
2023-04-14T03:30:13.396Z,85.80
2023-04-14T03:32:42.427Z,85.80
2023-04-14T03:35:14.989Z,86.00
2023-04-14T03:37:43.157Z,86.00
2023-04-14T03:40:13.732Z,85.90
2023-04-14T03:42:44.827Z,85.90
2023-04-14T03:45:14.249Z,85.90
2023-04-14T03:47:45.069Z,86.10
2023-04-14T03:50:15.458Z,86.30
2023-04-14T03:52:43.787Z,86.40
2023-04-14T03:55:12.594Z,86.90
2023-04-14T03:57:43.859Z,86.70
2023-04-14T04:00:15.902Z,86.90
2023-04-14T04:02:46.914Z,86.70
2023-04-14T04:05:14.574Z,86.80
2023-04-14T04:07:44.471Z,87.00
2023-04-14T04:10:12.525Z,87.10
2023-04-14T04:12:42.985Z,87.20
2023-04-14T04:15:13.617Z,87.40
2023-04-14T04:17:43.294Z,87.30
2023-04-14T04:20:15.367Z,87.30
2023-04-14T04:22:45.568Z,87.50
2023-04-14T04:25:13.579Z,87.30
2023-04-14T04:27:46.896Z,87.30
2023-04-14T04:30:18.306Z,87.30
2023-04-14T04:32:45.622Z,87.30
2023-04-14T04:35:12.808Z,87.50
2023-04-14T04:37:43.644Z,87.70
2023-04-14T04:40:12.151Z,87.70
2023-04-14T04:42:43.605Z,87.60
2023-04-14T04:45:14.881Z,87.60
2023-04-14T04:47:42.091Z,87.90
2023-04-14T04:50:09.226Z,88.00
2023-04-14T04:52:36.299Z,87.50
2023-04-14T04:55:03.358Z,87.60
2023-04-14T04:57:30.166Z,87.70
2023-04-14T04:59:57.608Z,87.90
2023-04-14T05:02:25.131Z,87.70
2023-04-14T05:04:52.776Z,87.50
2023-04-14T05:07:19.896Z,87.90
2023-04-14T05:09:46.803Z,87.70
2023-04-14T05:12:13.646Z,87.60
2023-04-14T05:14:40.638Z,87.20
2023-04-14T05:17:07.438Z,87.60
2023-04-14T05:19:34.353Z,87.70
2023-04-14T05:22:01.892Z,88.00
2023-04-14T05:24:28.833Z,87.70
2023-04-14T05:27:12.230Z,88.00
2023-04-14T05:29:40.552Z,88.10
2023-04-14T05:32:07.445Z,88.00
2023-04-14T05:34:34.478Z,88.30
2023-04-14T05:37:01.302Z,88.30
2023-04-14T05:39:28.123Z,88.20
2023-04-14T05:41:54.931Z,88.30
2023-04-14T05:44:22.801Z,88.70
2023-04-14T05:46:49.581Z,88.80
2023-04-14T05:49:17.053Z,88.60
2023-04-14T05:51:44.071Z,88.40
2023-04-14T05:54:10.952Z,88.90
2023-04-14T05:56:37.802Z,89.50
2023-04-14T05:59:04.656Z,89.70
2023-04-14T06:01:31.546Z,89.90
2023-04-14T06:03:58.500Z,88.90
2023-04-14T06:06:26.425Z,88.50
2023-04-14T06:08:53.212Z,88.20
2023-04-14T06:11:20.357Z,87.80
2023-04-14T06:13:47.227Z,88.00
2023-04-14T06:16:14.103Z,87.70
2023-04-14T06:18:41.440Z,88.10
2023-04-14T06:21:08.417Z,88.00
2023-04-14T06:23:35.886Z,88.20
2023-04-14T06:26:05.530Z,88.20
2023-04-14T06:28:32.750Z,89.40
2023-04-14T06:31:00.568Z,89.80
2023-04-14T06:33:27.508Z,89.80
2023-04-14T06:35:55.015Z,89.70
2023-04-14T06:38:21.963Z,89.20
2023-04-14T06:40:49.160Z,89.20
2023-04-14T06:43:18.075Z,89.20
2023-04-14T06:45:44.948Z,88.70
2023-04-14T06:48:13.310Z,87.90
2023-04-14T06:50:41.132Z,87.40
2023-04-14T06:53:09.383Z,87.40
2023-04-14T06:55:40.415Z,87.30
2023-04-14T06:58:07.338Z,86.60
2023-04-14T07:00:34.229Z,85.70
2023-04-14T07:03:01.309Z,84.40
2023-04-14T07:05:28.826Z,83.70
2023-04-14T07:07:55.771Z,82.90
2023-04-14T07:10:22.809Z,82.70
2023-04-14T07:12:53.071Z,82.30
2023-04-14T07:15:20.132Z,82.20
2023-04-14T07:17:46.972Z,82.20
2023-04-14T07:20:14.335Z,82.50
2023-04-14T07:22:41.434Z,82.60
2023-04-14T07:25:08.688Z,82.90
2023-04-14T07:27:35.718Z,82.90
2023-04-14T07:30:02.817Z,83.00
2023-04-14T07:32:29.919Z,83.00
2023-04-14T07:34:59.113Z,82.60
2023-04-14T07:37:26.652Z,82.70
2023-04-14T07:39:53.489Z,82.50
2023-04-14T07:42:20.318Z,82.70
2023-04-14T07:44:47.137Z,82.90
2023-04-14T07:47:14.002Z,82.90
2023-04-14T07:49:40.907Z,82.90
2023-04-14T07:52:07.763Z,83.20
2023-04-14T07:54:34.980Z,83.40
2023-04-14T07:57:02.307Z,83.70
2023-04-14T07:59:29.275Z,84.20
2023-04-14T08:01:56.195Z,84.30
2023-04-14T08:04:23.139Z,85.10
2023-04-14T08:06:49.980Z,85.40
2023-04-14T08:09:17.355Z,85.80
2023-04-14T08:11:44.195Z,85.90
2023-04-14T08:14:11.643Z,85.90
2023-04-14T08:16:38.798Z,86.10
2023-04-14T08:19:06.061Z,86.40
2023-04-14T08:21:33.135Z,86.60
2023-04-14T08:24:00.124Z,86.40
2023-04-14T08:26:30.587Z,86.20
2023-04-14T08:28:57.527Z,85.90
2023-04-14T08:31:25.049Z,85.50
2023-04-14T08:33:52.849Z,85.60
2023-04-14T08:36:20.439Z,86.10
2023-04-14T08:38:47.334Z,86.40
2023-04-14T08:41:15.845Z,86.50
2023-04-14T08:43:42.914Z,86.70
2023-04-14T08:46:13.428Z,86.50
2023-04-14T08:48:41.870Z,86.10
2023-04-14T08:51:28.668Z,86.30
2023-04-14T08:53:57.063Z,86.50
2023-04-14T08:56:27.265Z,86.30
2023-04-14T08:58:54.377Z,85.80
2023-04-14T09:01:21.598Z,85.40
2023-04-14T09:03:49.512Z,85.90
2023-04-14T09:06:18.483Z,85.90
2023-04-14T09:08:45.314Z,85.80
2023-04-14T09:11:12.718Z,86.30
2023-04-14T09:13:40.647Z,86.60
2023-04-14T09:16:08.255Z,86.80
2023-04-14T09:18:36.539Z,87.10
2023-04-14T09:21:30.183Z,87.20
2023-04-14T09:23:51.175Z,87.20
2023-04-14T09:26:18.732Z,87.30
2023-04-14T09:28:45.849Z,87.40
2023-04-14T09:31:12.946Z,87.40
2023-04-14T09:33:43.996Z,86.30
2023-04-14T09:36:24.819Z,86.10
2023-04-14T09:38:52.592Z,85.80
2023-04-14T09:41:28.030Z,85.00
2023-04-14T09:43:54.954Z,84.70
2023-04-14T09:46:22.430Z,84.80
2023-04-14T09:48:55.168Z,84.50
2023-04-14T09:51:23.726Z,84.40
2023-04-14T09:53:53.189Z,84.00
2023-04-14T09:56:26.027Z,84.00
2023-04-14T09:59:01.046Z,84.00
2023-04-14T10:01:34.375Z,83.40
2023-04-14T10:04:02.442Z,83.00
2023-04-14T10:06:31.210Z,83.10
2023-04-14T10:08:59.150Z,83.10
2023-04-14T10:11:29.606Z,83.40
2023-04-14T10:14:02.713Z,83.80
2023-04-14T10:16:30.099Z,83.70
2023-04-14T10:18:58.418Z,83.40
2023-04-14T10:21:27.844Z,82.70
2023-04-14T10:23:57.069Z,82.60
2023-04-14T10:26:23.976Z,82.20
2023-04-14T10:28:53.299Z,82.00
2023-04-14T10:31:32.187Z,81.70
2023-04-14T10:33:59.276Z,81.50
2023-04-14T10:36:31.914Z,81.20
2023-04-14T10:39:05.425Z,80.30
2023-04-14T10:41:47.504Z,80.00
2023-04-14T10:44:24.545Z,79.60
2023-04-14T10:46:52.263Z,79.20
2023-04-14T10:49:21.828Z,80.00
2023-04-14T10:51:50.004Z,79.60
2023-04-14T10:54:19.251Z,79.90
2023-04-14T10:57:09.432Z,79.40
2023-04-14T10:59:36.397Z,79.10
2023-04-14T11:02:03.536Z,79.20
2023-04-14T11:04:30.716Z,78.60
2023-04-14T11:06:59.077Z,77.90
2023-04-14T11:09:32.288Z,77.80
2023-04-14T11:12:23.608Z,76.90
2023-04-14T11:14:55.972Z,77.40
2023-04-14T11:17:23.469Z,77.70
2023-04-14T11:19:55.235Z,77.90
2023-04-14T11:22:41.719Z,76.90
2023-04-14T11:25:15.683Z,76.70
2023-04-14T11:27:43.889Z,76.50
2023-04-14T11:30:16.468Z,76.40
2023-04-14T11:32:47.915Z,76.60
2023-04-14T11:35:16.028Z,76.40
2023-04-14T11:37:43.514Z,75.90
2023-04-14T11:40:12.413Z,75.10
2023-04-14T11:42:51.979Z,75.20
2023-04-14T11:45:18.843Z,74.60
2023-04-14T11:48:03.387Z,74.90
2023-04-14T11:50:32.557Z,75.00
2023-04-14T11:53:00.348Z,75.00
2023-04-14T11:55:28.047Z,74.80
2023-04-14T11:57:55.789Z,74.90
2023-04-14T12:00:24.319Z,74.80
2023-04-14T12:02:51.812Z,73.90
2023-04-14T12:05:30.258Z,73.60
2023-04-14T12:08:07.560Z,73.00
2023-04-14T12:10:38.471Z,73.00
2023-04-14T12:13:07.957Z,73.30
2023-04-14T12:15:40.733Z,73.40
2023-04-14T12:18:14.492Z,73.70
2023-04-14T12:20:53.483Z,73.60
2023-04-14T12:23:20.841Z,72.10
2023-04-14T12:25:51.906Z,72.30
2023-04-14T12:28:27.713Z,71.60
2023-04-14T12:30:57.531Z,70.20
2023-04-14T12:33:26.011Z,70.30
2023-04-14T12:35:53.733Z,70.70
2023-04-14T12:38:26.831Z,70.60
2023-04-14T12:40:53.792Z,70.90
2023-04-14T12:43:28.391Z,70.40
2023-04-14T12:45:55.482Z,70.20
2023-04-14T12:48:22.476Z,69.80
2023-04-14T12:50:51.199Z,69.20
2023-04-14T12:53:27.113Z,69.30
2023-04-14T12:56:14.151Z,69.80
2023-04-14T12:58:43.726Z,69.00
2023-04-14T13:01:11.755Z,69.10
2023-04-14T13:03:39.977Z,69.50
2023-04-14T13:06:07.067Z,69.80
2023-04-14T13:08:34.091Z,69.60
2023-04-14T13:11:01.407Z,69.50
2023-04-14T13:13:29.721Z,69.00
2023-04-14T13:16:15.340Z,69.00
2023-04-14T13:18:43.984Z,69.40
2023-04-14T13:21:11.416Z,69.30
2023-04-14T13:23:38.636Z,68.70
2023-04-14T13:26:05.989Z,68.60
2023-04-14T13:28:32.940Z,69.00
2023-04-14T13:30:59.869Z,68.90
2023-04-14T13:33:27.607Z,68.90
2023-04-14T13:35:55.724Z,68.70
2023-04-14T13:38:22.860Z,68.30
2023-04-14T13:40:49.907Z,68.20
2023-04-14T13:43:20.314Z,68.30
2023-04-14T13:45:50.383Z,68.50
2023-04-14T13:48:17.554Z,68.00
2023-04-14T13:50:44.398Z,68.00
2023-04-14T13:53:12.316Z,67.60
2023-04-14T13:55:39.392Z,67.40
2023-04-14T13:58:06.378Z,67.10
2023-04-14T14:00:33.527Z,67.30
2023-04-14T14:03:00.929Z,67.20
2023-04-14T14:05:28.117Z,66.40
2023-04-14T14:07:56.573Z,66.40
2023-04-14T14:10:23.531Z,66.20
2023-04-14T14:12:50.303Z,65.70
2023-04-14T14:15:17.308Z,65.40
2023-04-14T14:17:44.144Z,65.50
2023-04-14T14:20:11.287Z,65.30
2023-04-14T14:22:38.714Z,65.40
2023-04-14T14:25:18.447Z,65.50
2023-04-14T14:27:48.482Z,65.70
2023-04-14T14:30:15.811Z,65.80
2023-04-14T14:32:42.726Z,65.30
2023-04-14T14:35:09.906Z,65.90
2023-04-14T14:37:36.836Z,65.90
2023-04-14T14:40:04.194Z,67.10
2023-04-14T14:42:31.194Z,67.40
2023-04-14T14:44:59.066Z,67.80
2023-04-14T14:47:28.403Z,66.90
2023-04-14T14:50:02.796Z,66.70
2023-04-14T14:52:32.206Z,66.20
2023-04-14T14:54:59.469Z,65.30
2023-04-14T14:57:26.969Z,64.50
2023-04-14T14:59:53.993Z,63.00
2023-04-14T15:02:21.815Z,60.10
2023-04-14T15:04:49.572Z,61.20
2023-04-14T15:07:16.596Z,58.50
2023-04-14T15:09:45.923Z,59.70
2023-04-14T15:12:12.910Z,59.90
2023-04-14T15:14:39.815Z,59.10
2023-04-14T15:17:07.087Z,59.40
2023-04-14T15:19:34.077Z,60.20
2023-04-14T15:22:01.595Z,60.60
2023-04-14T15:24:28.537Z,60.30
2023-04-14T15:26:56.200Z,59.30
2023-04-14T15:29:26.718Z,59.40
2023-04-14T15:31:54.063Z,59.30
2023-04-14T15:34:21.643Z,59.00
2023-04-14T15:36:48.667Z,59.40
2023-04-14T15:39:15.803Z,60.30
2023-04-14T15:41:42.694Z,60.80
2023-04-14T15:44:09.569Z,61.10
2023-04-14T15:46:36.342Z,61.70
2023-04-14T15:49:03.230Z,62.00
2023-04-14T15:51:30.026Z,61.40
2023-04-14T15:53:56.894Z,61.50
2023-04-14T15:56:24.424Z,61.80
2023-04-14T15:58:51.339Z,62.20
2023-04-14T16:01:18.341Z,61.70
2023-04-14T16:03:45.630Z,62.20
2023-04-14T16:06:12.717Z,62.50
2023-04-14T16:08:39.532Z,62.90
2023-04-14T16:11:06.519Z,62.70
2023-04-14T16:13:33.534Z,63.10
2023-04-14T16:16:01.244Z,63.40
2023-04-14T16:18:28.239Z,63.20
2023-04-14T16:20:55.260Z,63.30
2023-04-14T16:23:22.307Z,63.50
2023-04-14T16:25:49.851Z,63.80
2023-04-14T16:28:16.744Z,64.50
2023-04-14T16:30:44.017Z,64.90
2023-04-14T16:33:11.116Z,65.30
2023-04-14T16:35:37.974Z,65.20
2023-04-14T16:38:08.415Z,64.40
2023-04-14T16:40:36.313Z,64.90
2023-04-14T16:43:04.101Z,65.10
2023-04-14T16:45:31.925Z,65.10
2023-04-14T16:47:59.032Z,64.90
2023-04-14T16:50:25.886Z,65.10
2023-04-14T16:52:53.217Z,65.20
2023-04-14T16:55:20.110Z,66.10
2023-04-14T16:57:47.024Z,65.40
2023-04-14T17:00:14.345Z,66.10
2023-04-14T17:02:41.442Z,65.60
2023-04-14T17:05:10.553Z,65.90
2023-04-14T17:07:37.650Z,66.10
2023-04-14T17:10:05.133Z,66.20
2023-04-14T17:12:32.147Z,65.80
2023-04-14T17:15:00.271Z,65.70
2023-04-14T17:17:28.386Z,66.90
2023-04-14T17:19:56.839Z,66.50
2023-04-14T17:22:24.540Z,66.30
2023-04-14T17:24:52.140Z,66.50
2023-04-14T17:27:19.361Z,66.50
2023-04-14T17:29:46.646Z,66.90
2023-04-14T17:32:13.887Z,67.10
2023-04-14T17:34:40.882Z,67.10
2023-04-14T17:37:07.754Z,66.90
2023-04-14T17:39:34.689Z,66.10
2023-04-14T17:42:02.109Z,66.10
2023-04-14T17:44:33.692Z,66.40
2023-04-14T17:47:11.476Z,66.80
2023-04-14T17:49:38.953Z,66.70
2023-04-14T17:52:20.693Z,67.10
2023-04-14T17:54:49.604Z,67.10
2023-04-14T17:57:17.342Z,66.40
2023-04-14T17:59:45.018Z,66.20
2023-04-14T18:02:16.200Z,65.90
2023-04-14T18:04:43.637Z,66.00
2023-04-14T18:07:10.536Z,65.90
2023-04-14T18:09:37.362Z,65.70
2023-04-14T18:12:04.931Z,65.80
2023-04-14T18:14:33.249Z,66.10
2023-04-14T18:17:00.234Z,66.40
2023-04-14T18:19:27.418Z,66.00
2023-04-14T18:21:56.041Z,66.10
2023-04-14T18:26:54.422Z,66.00
2023-04-14T18:29:21.316Z,65.90
2023-04-14T18:31:49.382Z,66.10
2023-04-14T18:34:16.879Z,66.40
2023-04-14T18:36:44.220Z,66.40
2023-04-14T18:39:11.251Z,65.80
2023-04-14T18:41:38.466Z,65.70
2023-04-14T18:44:05.483Z,66.10
2023-04-14T18:46:32.446Z,65.90
2023-04-14T18:48:59.847Z,65.90
2023-04-14T18:51:27.582Z,66.20
2023-04-14T18:53:54.926Z,66.20
2023-04-14T18:56:21.752Z,66.30
2023-04-14T18:58:49.479Z,66.10
2023-04-14T19:01:17.654Z,66.30
2023-04-14T19:03:44.649Z,66.80
2023-04-14T19:06:12.920Z,66.80
2023-04-14T19:08:40.109Z,67.10
2023-04-14T19:11:07.540Z,67.60
2023-04-14T19:13:34.776Z,68.10
2023-04-14T19:16:06.273Z,69.30
2023-04-14T19:18:33.182Z,68.90
2023-04-14T19:20:59.974Z,69.30
2023-04-14T19:23:27.004Z,69.70
2023-04-14T19:25:57.515Z,69.70
2023-04-14T19:28:28.006Z,69.80
2023-04-14T19:30:55.051Z,69.70
2023-04-14T19:33:22.076Z,70.40
2023-04-14T19:35:49.221Z,70.10
2023-04-14T19:38:16.022Z,70.60
2023-04-14T19:40:49.772Z,70.80
2023-04-14T19:43:18.009Z,70.60
2023-04-14T19:45:57.073Z,70.70
2023-04-14T19:48:24.660Z,70.80
2023-04-14T19:50:54.503Z,70.90
2023-04-14T19:53:23.676Z,70.80
2023-04-14T19:55:56.815Z,70.90
2023-04-14T19:58:26.083Z,70.60
2023-04-14T20:00:57.197Z,69.70
2023-04-14T20:03:27.351Z,70.30
2023-04-14T20:05:55.954Z,70.00
2023-04-14T20:08:23.880Z,70.30
2023-04-14T20:10:53.940Z,70.70
2023-04-14T20:13:22.625Z,71.00
2023-04-14T20:15:50.675Z,70.90
2023-04-14T20:18:18.435Z,70.90
2023-04-14T20:20:48.873Z,71.20
2023-04-14T20:23:15.976Z,71.30
2023-04-14T20:25:44.053Z,71.70
2023-04-14T20:28:10.991Z,72.00
2023-04-14T20:30:37.993Z,71.70
2023-04-14T20:33:05.894Z,71.90
2023-04-14T20:35:36.215Z,71.70
2023-04-14T20:38:04.537Z,71.40
2023-04-14T20:40:31.398Z,71.40
2023-04-14T20:42:58.786Z,71.30
2023-04-14T20:45:25.797Z,71.20
2023-04-14T20:47:52.775Z,71.50
2023-04-14T20:50:19.776Z,71.30
2023-04-14T20:52:46.735Z,71.80
2023-04-14T20:55:14.448Z,72.20
2023-04-14T20:57:42.539Z,71.80
2023-04-14T21:00:10.364Z,71.40
2023-04-14T21:02:37.687Z,71.70
2023-04-14T21:05:05.779Z,71.70
2023-04-14T21:07:33.176Z,72.10
2023-04-14T21:10:00.249Z,72.70
2023-04-14T21:12:35.486Z,72.80
2023-04-14T21:15:40.079Z,72.70
2023-04-14T21:17:52.063Z,73.20
2023-04-14T21:20:19.024Z,73.40
2023-04-14T21:22:45.924Z,73.40
2023-04-14T21:25:12.757Z,73.40
2023-04-14T21:27:39.686Z,73.00
2023-04-14T21:30:07.337Z,72.70
2023-04-14T21:32:34.158Z,73.60
2023-04-14T21:35:01.079Z,73.20
2023-04-14T21:37:28.020Z,73.20
2023-04-14T21:39:56.226Z,73.20
2023-04-14T21:42:23.074Z,73.60
2023-04-14T21:44:49.970Z,73.60
2023-04-14T21:47:17.455Z,73.60
2023-04-14T21:49:44.460Z,73.50
2023-04-14T21:52:11.585Z,73.30
2023-04-14T21:54:43.574Z,73.30
2023-04-14T21:57:11.574Z,73.40
2023-04-14T21:59:38.376Z,73.10
2023-04-14T22:02:05.249Z,72.80
2023-04-14T22:04:36.438Z,72.80
2023-04-14T22:07:05.131Z,72.70
2023-04-14T22:09:33.295Z,72.50
2023-04-14T22:12:00.488Z,72.20
2023-04-14T22:14:27.665Z,72.00
2023-04-14T22:16:55.052Z,71.80
2023-04-14T22:19:22.077Z,72.10
2023-04-14T22:21:49.767Z,72.40
2023-04-14T22:24:16.664Z,72.30
2023-04-14T22:26:43.584Z,72.80
2023-04-14T22:29:11.623Z,73.10
2023-04-14T22:31:38.857Z,73.20
2023-04-14T22:34:06.605Z,73.30
2023-04-14T22:36:33.500Z,73.40
2023-04-14T22:39:00.522Z,73.40
2023-04-14T22:41:27.850Z,73.50
2023-04-14T22:43:54.674Z,73.30
2023-04-14T22:46:21.701Z,72.90
2023-04-14T22:48:48.558Z,72.40
2023-04-14T22:51:15.952Z,72.20
2023-04-14T22:53:43.009Z,72.20
2023-04-14T22:56:10.412Z,72.00
2023-04-14T22:58:40.298Z,71.80
2023-04-14T23:01:19.258Z,71.70
2023-04-14T23:03:51.020Z,71.80
2023-04-14T23:06:22.892Z,71.50
2023-04-14T23:08:50.934Z,71.50
2023-04-14T23:11:20.632Z,71.20
2023-04-14T23:13:49.055Z,71.20
2023-04-14T23:16:19.927Z,71.20
2023-04-14T23:18:52.316Z,70.70
2023-04-14T23:21:22.196Z,71.00
2023-04-14T23:23:49.880Z,71.00
2023-04-14T23:26:19.388Z,71.00
2023-04-14T23:28:46.643Z,71.00
2023-04-14T23:31:13.657Z,71.00
2023-04-14T23:33:40.555Z,70.90
2023-04-14T23:36:08.010Z,71.00
2023-04-14T23:38:34.976Z,70.90
2023-04-14T23:41:02.244Z,70.80
2023-04-14T23:43:29.334Z,70.60
2023-04-14T23:45:56.795Z,70.60
2023-04-14T23:48:23.957Z,70.20
2023-04-14T23:50:59.099Z,70.00
2023-04-14T23:53:31.182Z,70.00
2023-04-14T23:55:58.009Z,69.90
2023-04-14T23:58:26.930Z,69.80
